18分钟前
罗盘
风向 的 风向 170° Hoogeveen Airport 09/27
风: 3 千吨, 1 beaufort
0 500 1.500 3.000 5.000 8.000 10.000
BKN 4.400 ft
METAR EDDG 291720Z 17003KT 9999 BKN044 02/01 Q1010 NOSIG

METAR定义 | 嵌入

24小时趋势

航班类别VFRLIFR
温度5 °C0 °C
风速8 千吨0 千吨
能见度10 公里+0 米

更多历史数据

下载我们的安卓应用程序

从你的主屏幕上轻松地访问你的航空天气。
只需一次付费,您就可以获得无广告的体验。

您会帮助我们保持Metar-Taf.com正常运行吗?
您的贡献有助于网站的进一步开发并支付费用。

没有更多广告

您是捐款5美元还是更多?然后,我们将永远不会再向您展示广告,这是我们永恒的感谢!
捐赠前先登录

METAR Hoogeveen Airport

Hoogeveen Airport是Hoogeveen,荷兰中的小机场。 机场有{a,plural,=1{一条跑道} other{#跑道}}: 09/27

Hoogeveen Airport最近未发布观察结果。相反,我们向您显示103 km的报告Münster Osnabrück Airport。 该报告是针对2021年11月29日 18:20, 当地时间进行的。

机场观察

风来自南 (170°)方向,速度为3 千吨。

可见度为10 公里 或者更多。

有碎云在4.400 ft的高度。 破损或更高的上限为4.400 ft。

温度为2 °C,阵风为-1 °C。 露点为1 °C,相对湿度为93%。 海平面上的气压为1010 压力 (QNH)。

白天

今天,太阳从08:20升起,在16:24降落。 这适用于Hoogeveen Airport,世界夏令时可能有所不同。 当地时间与世界标准时间之间的时差为+1 小时。 当前,没有夏令时有效。

公司介绍

在这个机场,你可以找到跳伞中心 和 飞行俱乐部。 这个机场上的公司有Vliegles.nl, Egmond Vintage Wings 和 Vliegclub Hoogeveen。

体会

你可以在这个机场与经验丰富的教练进行双人跳伞。 这些跳伞包括自由落体。 在Hoogeveen Airport进行跳伞的费用是€ 199。 在这里预订Skydive Hoogeveen

您是否要在网站上Hoogeveen Airport飞行的天气? 阅读更多   自由!